sensor_id;sensor_type;location;lat;lon;timestamp;P1;durP1;ratioP1;P2;durP2;ratioP2
67278;SDS011;54193;53.746;10.058;2022-11-20T00:00:27;8.93;;;4.00;;
67278;SDS011;54193;53.746;10.058;2022-11-20T00:03:13;11.00;;;4.13;;
67278;SDS011;54193;53.746;10.058;2022-11-20T00:06:03;12.18;;;3.85;;
67278;SDS011;54193;53.746;10.058;2022-11-20T00:08:50;9.77;;;3.55;;
67278;SDS011;54193;53.746;10.058;2022-11-20T00:11:36;7.67;;;3.57;;
67278;SDS011;54193;53.746;10.058;2022-11-20T00:14:22;9.35;;;4.00;;
67278;SDS011;54193;53.746;10.058;2022-11-20T00:17:07;8.88;;;4.05;;
67278;SDS011;54193;53.746;10.058;2022-11-20T00:19:53;8.43;;;3.45;;
67278;SDS011;54193;53.746;10.058;2022-11-20T00:22:39;12.68;;;4.30;;
67278;SDS011;54193;53.746;10.058;2022-11-20T00:25:24;8.13;;;3.63;;
67278;SDS011;54193;53.746;10.058;2022-11-20T00:28:10;9.52;;;3.90;;
67278;SDS011;54193;53.746;10.058;2022-11-20T00:31:02;8.25;;;4.25;;
67278;SDS011;54193;53.746;10.058;2022-11-20T00:33:49;8.93;;;4.03;;
67278;SDS011;54193;53.746;10.058;2022-11-20T00:36:35;10.07;;;4.28;;
67278;SDS011;54193;53.746;10.058;2022-11-20T00:39:21;9.50;;;4.23;;
67278;SDS011;54193;53.746;10.058;2022-11-20T00:42:07;9.38;;;4.00;;
67278;SDS011;54193;53.746;10.058;2022-11-20T00:44:52;10.85;;;4.32;;
67278;SDS011;54193;53.746;10.058;2022-11-20T00:47:38;9.48;;;3.97;;
67278;SDS011;54193;53.746;10.058;2022-11-20T00:50:23;9.98;;;4.47;;
67278;SDS011;54193;53.746;10.058;2022-11-20T00:53:09;10.07;;;4.40;;
67278;SDS011;54193;53.746;10.058;2022-11-20T00:55:56;8.68;;;4.15;;
67278;SDS011;54193;53.746;10.058;2022-11-20T00:58:46;11.40;;;4.53;;
67278;SDS011;54193;53.746;10.058;2022-11-20T01:01:33;10.27;;;4.40;;
67278;SDS011;54193;53.746;10.058;2022-11-20T01:04:18;10.80;;;4.38;;
67278;SDS011;54193;53.746;10.058;2022-11-20T01:07:04;11.10;;;4.13;;
67278;SDS011;54193;53.746;10.058;2022-11-20T01:09:49;10.95;;;4.50;;
67278;SDS011;54193;53.746;10.058;2022-11-20T01:12:35;9.38;;;4.00;;
67278;SDS011;54193;53.746;10.058;2022-11-20T01:15:21;9.48;;;4.03;;
67278;SDS011;54193;53.746;10.058;2022-11-20T01:18:06;10.13;;;4.28;;
67278;SDS011;54193;53.746;10.058;2022-11-20T01:20:52;10.77;;;4.37;;
67278;SDS011;54193;53.746;10.058;2022-11-20T01:23:38;8.23;;;4.05;;
67278;SDS011;54193;53.746;10.058;2022-11-20T01:26:26;10.18;;;4.05;;
67278;SDS011;54193;53.746;10.058;2022-11-20T01:29:16;9.73;;;4.35;;
67278;SDS011;54193;53.746;10.058;2022-11-20T01:32:06;9.40;;;4.25;;
67278;SDS011;54193;53.746;10.058;2022-11-20T01:34:52;9.33;;;4.00;;
67278;SDS011;54193;53.746;10.058;2022-11-20T01:37:37;8.77;;;4.07;;
67278;SDS011;54193;53.746;10.058;2022-11-20T01:40:23;11.15;;;4.30;;
67278;SDS011;54193;53.746;10.058;2022-11-20T01:43:17;11.07;;;4.32;;
67278;SDS011;54193;53.746;10.058;2022-11-20T01:49:08;11.03;;;4.60;;
67278;SDS011;54193;53.746;10.058;2022-11-20T01:52:06;11.05;;;4.07;;
67278;SDS011;54193;53.746;10.058;2022-11-20T01:55:00;10.40;;;4.20;;
67278;SDS011;54193;53.746;10.058;2022-11-20T01:57:49;10.02;;;3.70;;
67278;SDS011;54193;53.746;10.058;2022-11-20T02:00:35;10.18;;;3.92;;
67278;SDS011;54193;53.746;10.058;2022-11-20T02:03:21;10.87;;;4.07;;
67278;SDS011;54193;53.746;10.058;2022-11-20T02:06:42;10.23;;;4.15;;
67278;SDS011;54193;53.746;10.058;2022-11-20T02:09:27;13.23;;;4.10;;
67278;SDS011;54193;53.746;10.058;2022-11-20T02:12:13;9.38;;;4.10;;
67278;SDS011;54193;53.746;10.058;2022-11-20T02:15:19;9.52;;;3.95;;
67278;SDS011;54193;53.746;10.058;2022-11-20T02:18:05;10.37;;;4.17;;
67278;SDS011;54193;53.746;10.058;2022-11-20T02:20:53;11.30;;;4.40;;
67278;SDS011;54193;53.746;10.058;2022-11-20T02:24:04;10.27;;;3.88;;
67278;SDS011;54193;53.746;10.058;2022-11-20T02:26:51;8.52;;;3.70;;
67278;SDS011;54193;53.746;10.058;2022-11-20T02:29:44;8.65;;;3.22;;
67278;SDS011;54193;53.746;10.058;2022-11-20T02:32:38;10.80;;;4.00;;
67278;SDS011;54193;53.746;10.058;2022-11-20T02:38:10;9.80;;;4.20;;
67278;SDS011;54193;53.746;10.058;2022-11-20T02:40:56;10.38;;;4.25;;
67278;SDS011;54193;53.746;10.058;2022-11-20T02:43:41;10.73;;;4.20;;
67278;SDS011;54193;53.746;10.058;2022-11-20T02:46:27;9.63;;;4.00;;
67278;SDS011;54193;53.746;10.058;2022-11-20T02:49:13;9.68;;;3.95;;
67278;SDS011;54193;53.746;10.058;2022-11-20T02:51:58;11.38;;;3.75;;
67278;SDS011;54193;53.746;10.058;2022-11-20T02:54:44;11.27;;;4.70;;
67278;SDS011;54193;53.746;10.058;2022-11-20T02:57:30;10.43;;;4.45;;
67278;SDS011;54193;53.746;10.058;2022-11-20T03:00:15;10.83;;;4.10;;
67278;SDS011;54193;53.746;10.058;2022-11-20T03:03:01;9.75;;;3.75;;
67278;SDS011;54193;53.746;10.058;2022-11-20T03:05:47;11.40;;;4.53;;
67278;SDS011;54193;53.746;10.058;2022-11-20T03:08:33;10.63;;;4.35;;
67278;SDS011;54193;53.746;10.058;2022-11-20T03:11:19;11.40;;;4.40;;
67278;SDS011;54193;53.746;10.058;2022-11-20T03:14:04;9.60;;;4.07;;
67278;SDS011;54193;53.746;10.058;2022-11-20T03:16:50;10.35;;;4.25;;
67278;SDS011;54193;53.746;10.058;2022-11-20T03:19:36;9.75;;;3.90;;
67278;SDS011;54193;53.746;10.058;2022-11-20T03:22:22;10.70;;;4.10;;
67278;SDS011;54193;53.746;10.058;2022-11-20T03:25:07;9.15;;;4.00;;
67278;SDS011;54193;53.746;10.058;2022-11-20T03:27:53;8.93;;;3.63;;
67278;SDS011;54193;53.746;10.058;2022-11-20T03:30:39;10.68;;;4.57;;
67278;SDS011;54193;53.746;10.058;2022-11-20T03:33:27;9.68;;;3.85;;
67278;SDS011;54193;53.746;10.058;2022-11-20T03:36:14;9.07;;;3.42;;
67278;SDS011;54193;53.746;10.058;2022-11-20T03:39:00;10.77;;;4.63;;
67278;SDS011;54193;53.746;10.058;2022-11-20T03:41:46;9.77;;;3.63;;
67278;SDS011;54193;53.746;10.058;2022-11-20T03:44:31;12.07;;;4.30;;
67278;SDS011;54193;53.746;10.058;2022-11-20T03:47:17;11.02;;;4.25;;
67278;SDS011;54193;53.746;10.058;2022-11-20T03:50:03;10.13;;;3.85;;
67278;SDS011;54193;53.746;10.058;2022-11-20T03:52:49;12.40;;;4.43;;
67278;SDS011;54193;53.746;10.058;2022-11-20T03:55:34;10.67;;;4.17;;
67278;SDS011;54193;53.746;10.058;2022-11-20T03:58:20;10.45;;;3.83;;
67278;SDS011;54193;53.746;10.058;2022-11-20T04:01:06;10.15;;;3.97;;
67278;SDS011;54193;53.746;10.058;2022-11-20T04:03:54;11.32;;;4.40;;
67278;SDS011;54193;53.746;10.058;2022-11-20T04:06:40;13.27;;;4.28;;
67278;SDS011;54193;53.746;10.058;2022-11-20T04:09:26;9.53;;;3.67;;
67278;SDS011;54193;53.746;10.058;2022-11-20T04:12:12;9.60;;;3.75;;
67278;SDS011;54193;53.746;10.058;2022-11-20T04:14:57;10.88;;;3.90;;
67278;SDS011;54193;53.746;10.058;2022-11-20T04:17:43;9.73;;;3.72;;
67278;SDS011;54193;53.746;10.058;2022-11-20T04:20:29;14.32;;;4.32;;
67278;SDS011;54193;53.746;10.058;2022-11-20T04:23:14;9.73;;;4.00;;
67278;SDS011;54193;53.746;10.058;2022-11-20T04:26:01;9.98;;;3.72;;
67278;SDS011;54193;53.746;10.058;2022-11-20T04:28:48;9.60;;;3.78;;
67278;SDS011;54193;53.746;10.058;2022-11-20T04:31:34;9.25;;;3.53;;
67278;SDS011;54193;53.746;10.058;2022-11-20T04:34:20;10.68;;;4.40;;
67278;SDS011;54193;53.746;10.058;2022-11-20T04:37:05;9.77;;;3.73;;
67278;SDS011;54193;53.746;10.058;2022-11-20T04:39:51;11.93;;;4.35;;
67278;SDS011;54193;53.746;10.058;2022-11-20T04:42:37;13.45;;;4.88;;
67278;SDS011;54193;53.746;10.058;2022-11-20T04:45:22;11.88;;;4.57;;
67278;SDS011;54193;53.746;10.058;2022-11-20T04:48:08;10.32;;;4.15;;
67278;SDS011;54193;53.746;10.058;2022-11-20T04:50:54;14.07;;;5.03;;
67278;SDS011;54193;53.746;10.058;2022-11-20T04:53:39;10.73;;;4.43;;
67278;SDS011;54193;53.746;10.058;2022-11-20T04:56:25;11.43;;;4.70;;
67278;SDS011;54193;53.746;10.058;2022-11-20T04:59:11;12.30;;;4.65;;
67278;SDS011;54193;53.746;10.058;2022-11-20T05:01:57;12.48;;;4.70;;
67278;SDS011;54193;53.746;10.058;2022-11-20T05:04:42;13.80;;;4.70;;
67278;SDS011;54193;53.746;10.058;2022-11-20T05:07:28;11.75;;;4.63;;
67278;SDS011;54193;53.746;10.058;2022-11-20T05:10:14;10.95;;;4.35;;
67278;SDS011;54193;53.746;10.058;2022-11-20T05:12:59;11.95;;;4.78;;
67278;SDS011;54193;53.746;10.058;2022-11-20T05:15:45;11.63;;;4.35;;
67278;SDS011;54193;53.746;10.058;2022-11-20T05:18:31;12.30;;;5.07;;
67278;SDS011;54193;53.746;10.058;2022-11-20T05:21:16;12.25;;;4.82;;
67278;SDS011;54193;53.746;10.058;2022-11-20T05:24:02;10.30;;;4.70;;
67278;SDS011;54193;53.746;10.058;2022-11-20T05:26:48;11.95;;;4.75;;
67278;SDS011;54193;53.746;10.058;2022-11-20T05:29:34;14.23;;;5.05;;
67278;SDS011;54193;53.746;10.058;2022-11-20T05:32:19;11.73;;;3.93;;
67278;SDS011;54193;53.746;10.058;2022-11-20T05:35:05;13.02;;;4.88;;
67278;SDS011;54193;53.746;10.058;2022-11-20T05:37:51;12.55;;;4.68;;
67278;SDS011;54193;53.746;10.058;2022-11-20T05:40:37;11.32;;;4.38;;
67278;SDS011;54193;53.746;10.058;2022-11-20T05:43:22;10.73;;;4.22;;
67278;SDS011;54193;53.746;10.058;2022-11-20T05:46:09;10.43;;;4.17;;
67278;SDS011;54193;53.746;10.058;2022-11-20T05:48:55;11.48;;;4.95;;
67278;SDS011;54193;53.746;10.058;2022-11-20T05:51:42;14.98;;;5.00;;
67278;SDS011;54193;53.746;10.058;2022-11-20T05:54:27;10.70;;;4.53;;
67278;SDS011;54193;53.746;10.058;2022-11-20T05:57:13;11.27;;;4.50;;
67278;SDS011;54193;53.746;10.058;2022-11-20T05:59:59;11.90;;;4.43;;
67278;SDS011;54193;53.746;10.058;2022-11-20T06:02:44;13.63;;;4.68;;
67278;SDS011;54193;53.746;10.058;2022-11-20T06:05:30;12.63;;;4.70;;
67278;SDS011;54193;53.746;10.058;2022-11-20T06:08:16;12.55;;;4.75;;
67278;SDS011;54193;53.746;10.058;2022-11-20T06:11:05;12.82;;;5.50;;
67278;SDS011;54193;53.746;10.058;2022-11-20T06:13:52;13.87;;;4.83;;
67278;SDS011;54193;53.746;10.058;2022-11-20T06:16:38;10.93;;;4.60;;
67278;SDS011;54193;53.746;10.058;2022-11-20T06:19:23;11.98;;;4.60;;
67278;SDS011;54193;53.746;10.058;2022-11-20T06:22:09;12.23;;;4.38;;
67278;SDS011;54193;53.746;10.058;2022-11-20T06:24:55;12.40;;;5.00;;
67278;SDS011;54193;53.746;10.058;2022-11-20T06:27:40;15.93;;;6.13;;
67278;SDS011;54193;53.746;10.058;2022-11-20T06:30:26;14.65;;;5.20;;
67278;SDS011;54193;53.746;10.058;2022-11-20T06:33:11;12.43;;;5.20;;
67278;SDS011;54193;53.746;10.058;2022-11-20T06:35:58;14.65;;;5.45;;
67278;SDS011;54193;53.746;10.058;2022-11-20T06:38:45;13.45;;;5.60;;
67278;SDS011;54193;53.746;10.058;2022-11-20T06:41:30;12.77;;;5.47;;
67278;SDS011;54193;53.746;10.058;2022-11-20T06:44:16;14.07;;;5.38;;
67278;SDS011;54193;53.746;10.058;2022-11-20T06:47:02;13.40;;;4.95;;
67278;SDS011;54193;53.746;10.058;2022-11-20T06:49:47;13.73;;;5.35;;
67278;SDS011;54193;53.746;10.058;2022-11-20T06:52:33;11.23;;;5.13;;
67278;SDS011;54193;53.746;10.058;2022-11-20T06:55:19;14.43;;;5.20;;
67278;SDS011;54193;53.746;10.058;2022-11-20T06:58:04;12.05;;;5.18;;
67278;SDS011;54193;53.746;10.058;2022-11-20T07:00:50;15.65;;;6.22;;
67278;SDS011;54193;53.746;10.058;2022-11-20T07:03:36;19.98;;;6.82;;
67278;SDS011;54193;53.746;10.058;2022-11-20T07:06:21;20.52;;;8.73;;
67278;SDS011;54193;53.746;10.058;2022-11-20T07:09:07;17.80;;;6.80;;
67278;SDS011;54193;53.746;10.058;2022-11-20T07:11:53;16.75;;;7.30;;
67278;SDS011;54193;53.746;10.058;2022-11-20T07:14:38;15.88;;;6.20;;
67278;SDS011;54193;53.746;10.058;2022-11-20T07:17:24;13.73;;;5.65;;
67278;SDS011;54193;53.746;10.058;2022-11-20T07:20:09;18.70;;;7.18;;
67278;SDS011;54193;53.746;10.058;2022-11-20T07:22:56;21.30;;;7.67;;
67278;SDS011;54193;53.746;10.058;2022-11-20T07:25:42;23.55;;;8.75;;
67278;SDS011;54193;53.746;10.058;2022-11-20T07:28:28;21.42;;;7.10;;
67278;SDS011;54193;53.746;10.058;2022-11-20T07:31:14;22.13;;;8.13;;
67278;SDS011;54193;53.746;10.058;2022-11-20T07:33:59;20.40;;;8.32;;
67278;SDS011;54193;53.746;10.058;2022-11-20T07:36:45;16.33;;;6.93;;
67278;SDS011;54193;53.746;10.058;2022-11-20T07:39:31;15.02;;;6.72;;
67278;SDS011;54193;53.746;10.058;2022-11-20T07:42:16;14.10;;;6.00;;
67278;SDS011;54193;53.746;10.058;2022-11-20T07:45:02;13.98;;;5.35;;
67278;SDS011;54193;53.746;10.058;2022-11-20T07:47:48;15.00;;;5.97;;
67278;SDS011;54193;53.746;10.058;2022-11-20T07:50:33;11.40;;;5.07;;
67278;SDS011;54193;53.746;10.058;2022-11-20T07:53:19;12.18;;;4.97;;
67278;SDS011;54193;53.746;10.058;2022-11-20T07:56:07;15.20;;;5.72;;
67278;SDS011;54193;53.746;10.058;2022-11-20T07:58:52;10.70;;;4.30;;
67278;SDS011;54193;53.746;10.058;2022-11-20T08:01:39;13.38;;;4.95;;
67278;SDS011;54193;53.746;10.058;2022-11-20T08:04:25;14.23;;;5.53;;
67278;SDS011;54193;53.746;10.058;2022-11-20T08:07:10;14.52;;;5.30;;
67278;SDS011;54193;53.746;10.058;2022-11-20T08:09:56;12.02;;;5.13;;
67278;SDS011;54193;53.746;10.058;2022-11-20T08:12:45;12.77;;;5.15;;
67278;SDS011;54193;53.746;10.058;2022-11-20T08:15:53;12.60;;;4.82;;
67278;SDS011;54193;53.746;10.058;2022-11-20T08:18:39;12.27;;;4.83;;
67278;SDS011;54193;53.746;10.058;2022-11-20T08:21:24;12.40;;;4.70;;
67278;SDS011;54193;53.746;10.058;2022-11-20T08:24:10;14.00;;;4.82;;
67278;SDS011;54193;53.746;10.058;2022-11-20T08:26:59;9.30;;;3.88;;
67278;SDS011;54193;53.746;10.058;2022-11-20T08:29:45;10.75;;;4.90;;
67278;SDS011;54193;53.746;10.058;2022-11-20T08:32:31;13.23;;;5.20;;
67278;SDS011;54193;53.746;10.058;2022-11-20T08:35:16;15.85;;;6.10;;
67278;SDS011;54193;53.746;10.058;2022-11-20T08:38:03;18.90;;;7.05;;
67278;SDS011;54193;53.746;10.058;2022-11-20T08:40:51;18.50;;;7.00;;
67278;SDS011;54193;53.746;10.058;2022-11-20T08:43:59;18.20;;;7.90;;
67278;SDS011;54193;53.746;10.058;2022-11-20T08:46:47;26.30;;;11.03;;
67278;SDS011;54193;53.746;10.058;2022-11-20T08:49:32;21.45;;;9.05;;
67278;SDS011;54193;53.746;10.058;2022-11-20T08:52:18;20.90;;;8.65;;
67278;SDS011;54193;53.746;10.058;2022-11-20T08:55:04;16.83;;;6.38;;
67278;SDS011;54193;53.746;10.058;2022-11-20T08:57:50;12.52;;;5.32;;
67278;SDS011;54193;53.746;10.058;2022-11-20T09:00:36;10.20;;;4.23;;
67278;SDS011;54193;53.746;10.058;2022-11-20T09:03:22;11.68;;;4.90;;
67278;SDS011;54193;53.746;10.058;2022-11-20T09:06:08;12.50;;;4.75;;
67278;SDS011;54193;53.746;10.058;2022-11-20T09:08:54;10.27;;;3.80;;
67278;SDS011;54193;53.746;10.058;2022-11-20T09:11:40;13.02;;;5.22;;
67278;SDS011;54193;53.746;10.058;2022-11-20T09:14:25;10.10;;;4.37;;
67278;SDS011;54193;53.746;10.058;2022-11-20T09:17:14;7.93;;;3.25;;
67278;SDS011;54193;53.746;10.058;2022-11-20T09:20:00;10.98;;;4.55;;
67278;SDS011;54193;53.746;10.058;2022-11-20T09:22:45;11.13;;;4.68;;
67278;SDS011;54193;53.746;10.058;2022-11-20T09:25:31;10.93;;;4.50;;
67278;SDS011;54193;53.746;10.058;2022-11-20T09:28:17;11.93;;;4.23;;
67278;SDS011;54193;53.746;10.058;2022-11-20T09:31:23;11.32;;;4.53;;
67278;SDS011;54193;53.746;10.058;2022-11-20T09:34:10;10.90;;;4.10;;
67278;SDS011;54193;53.746;10.058;2022-11-20T09:36:56;12.50;;;4.45;;
67278;SDS011;54193;53.746;10.058;2022-11-20T09:39:41;9.70;;;3.80;;
67278;SDS011;54193;53.746;10.058;2022-11-20T09:45:43;10.95;;;4.28;;
67278;SDS011;54193;53.746;10.058;2022-11-20T09:55:03;10.90;;;4.68;;
67278;SDS011;54193;53.746;10.058;2022-11-20T09:57:55;13.17;;;4.53;;
67278;SDS011;54193;53.746;10.058;2022-11-20T10:00:43;10.25;;;4.50;;
67278;SDS011;54193;53.746;10.058;2022-11-20T10:03:35;10.52;;;4.43;;
67278;SDS011;54193;53.746;10.058;2022-11-20T10:06:40;11.00;;;4.63;;
67278;SDS011;54193;53.746;10.058;2022-11-20T10:09:34;10.90;;;4.60;;
67278;SDS011;54193;53.746;10.058;2022-11-20T10:12:25;11.03;;;4.30;;
67278;SDS011;54193;53.746;10.058;2022-11-20T10:15:25;10.15;;;3.97;;
67278;SDS011;54193;53.746;10.058;2022-11-20T10:18:32;11.30;;;4.55;;
67278;SDS011;54193;53.746;10.058;2022-11-20T10:21:33;12.70;;;4.97;;
67278;SDS011;54193;53.746;10.058;2022-11-20T10:24:44;11.93;;;4.72;;
67278;SDS011;54193;53.746;10.058;2022-11-20T10:27:50;11.40;;;4.43;;
67278;SDS011;54193;53.746;10.058;2022-11-20T10:31:06;9.60;;;3.45;;
67278;SDS011;54193;53.746;10.058;2022-11-20T10:33:55;8.23;;;3.40;;
67278;SDS011;54193;53.746;10.058;2022-11-20T10:36:47;6.15;;;2.75;;
67278;SDS011;54193;53.746;10.058;2022-11-20T10:48:43;10.80;;;5.03;;
67278;SDS011;54193;53.746;10.058;2022-11-20T10:51:52;8.18;;;3.22;;
67278;SDS011;54193;53.746;10.058;2022-11-20T11:01:14;8.18;;;3.30;;
67278;SDS011;54193;53.746;10.058;2022-11-20T11:04:02;8.93;;;3.70;;
67278;SDS011;54193;53.746;10.058;2022-11-20T11:06:48;9.50;;;3.60;;
67278;SDS011;54193;53.746;10.058;2022-11-20T11:09:37;8.00;;;3.13;;
67278;SDS011;54193;53.746;10.058;2022-11-20T11:12:28;8.73;;;3.27;;
67278;SDS011;54193;53.746;10.058;2022-11-20T11:15:24;8.02;;;3.20;;
67278;SDS011;54193;53.746;10.058;2022-11-20T11:18:28;7.88;;;3.22;;
67278;SDS011;54193;53.746;10.058;2022-11-20T11:21:24;8.25;;;3.40;;
67278;SDS011;54193;53.746;10.058;2022-11-20T11:24:18;9.60;;;4.20;;
67278;SDS011;54193;53.746;10.058;2022-11-20T11:27:13;9.40;;;3.40;;
67278;SDS011;54193;53.746;10.058;2022-11-20T11:30:11;8.45;;;3.70;;
67278;SDS011;54193;53.746;10.058;2022-11-20T11:33:03;8.35;;;3.72;;
67278;SDS011;54193;53.746;10.058;2022-11-20T11:36:01;9.75;;;4.40;;
67278;SDS011;54193;53.746;10.058;2022-11-20T11:38:50;7.60;;;3.50;;
67278;SDS011;54193;53.746;10.058;2022-11-20T11:41:38;13.80;;;6.53;;
67278;SDS011;54193;53.746;10.058;2022-11-20T11:44:33;8.00;;;3.58;;
67278;SDS011;54193;53.746;10.058;2022-11-20T11:50:27;7.63;;;3.17;;
67278;SDS011;54193;53.746;10.058;2022-11-20T11:53:14;7.65;;;3.13;;
67278;SDS011;54193;53.746;10.058;2022-11-20T11:56:04;7.50;;;3.70;;
67278;SDS011;54193;53.746;10.058;2022-11-20T11:58:53;6.50;;;3.10;;
67278;SDS011;54193;53.746;10.058;2022-11-20T12:01:46;7.45;;;3.40;;
67278;SDS011;54193;53.746;10.058;2022-11-20T12:04:44;6.18;;;2.60;;
67278;SDS011;54193;53.746;10.058;2022-11-20T12:07:37;6.95;;;2.75;;
67278;SDS011;54193;53.746;10.058;2022-11-20T12:16:07;6.25;;;2.60;;
67278;SDS011;54193;53.746;10.058;2022-11-20T12:18:57;6.38;;;2.80;;
67278;SDS011;54193;53.746;10.058;2022-11-20T12:24:50;6.23;;;2.60;;
67278;SDS011;54193;53.746;10.058;2022-11-20T12:43:20;6.10;;;2.75;;
67278;SDS011;54193;53.746;10.058;2022-11-20T12:59:56;7.22;;;2.92;;
67278;SDS011;54193;53.746;10.058;2022-11-20T13:09:02;5.72;;;2.85;;
67278;SDS011;54193;53.746;10.058;2022-11-20T13:12:03;5.53;;;2.60;;
67278;SDS011;54193;53.746;10.058;2022-11-20T13:15:17;6.38;;;2.92;;
67278;SDS011;54193;53.746;10.058;2022-11-20T13:18:10;6.55;;;3.03;;
67278;SDS011;54193;53.746;10.058;2022-11-20T13:20:57;7.20;;;3.25;;
67278;SDS011;54193;53.746;10.058;2022-11-20T13:23:42;7.15;;;3.47;;
67278;SDS011;54193;53.746;10.058;2022-11-20T13:26:28;5.77;;;2.87;;
67278;SDS011;54193;53.746;10.058;2022-11-20T13:29:17;6.50;;;2.65;;
67278;SDS011;54193;53.746;10.058;2022-11-20T13:32:04;6.60;;;2.85;;
67278;SDS011;54193;53.746;10.058;2022-11-20T13:34:53;7.15;;;3.10;;
67278;SDS011;54193;53.746;10.058;2022-11-20T13:37:40;7.03;;;3.20;;
67278;SDS011;54193;53.746;10.058;2022-11-20T13:40:26;7.03;;;3.17;;
67278;SDS011;54193;53.746;10.058;2022-11-20T13:46:05;8.15;;;3.17;;
67278;SDS011;54193;53.746;10.058;2022-11-20T13:48:55;9.52;;;3.72;;
67278;SDS011;54193;53.746;10.058;2022-11-20T13:51:42;12.48;;;5.60;;
67278;SDS011;54193;53.746;10.058;2022-11-20T14:00:49;13.02;;;5.88;;
67278;SDS011;54193;53.746;10.058;2022-11-20T14:03:40;7.38;;;3.30;;
67278;SDS011;54193;53.746;10.058;2022-11-20T14:06:27;10.50;;;4.78;;
67278;SDS011;54193;53.746;10.058;2022-11-20T14:09:27;8.10;;;3.50;;
67278;SDS011;54193;53.746;10.058;2022-11-20T14:12:15;17.92;;;8.70;;
67278;SDS011;54193;53.746;10.058;2022-11-20T14:15:02;7.63;;;3.53;;
67278;SDS011;54193;53.746;10.058;2022-11-20T14:17:48;7.50;;;3.85;;
67278;SDS011;54193;53.746;10.058;2022-11-20T14:20:34;9.95;;;5.30;;
67278;SDS011;54193;53.746;10.058;2022-11-20T14:23:26;9.73;;;4.50;;
67278;SDS011;54193;53.746;10.058;2022-11-20T14:26:14;6.90;;;3.42;;
67278;SDS011;54193;53.746;10.058;2022-11-20T14:29:03;12.97;;;6.23;;
67278;SDS011;54193;53.746;10.058;2022-11-20T14:31:53;7.40;;;3.40;;
67278;SDS011;54193;53.746;10.058;2022-11-20T14:34:41;7.93;;;3.20;;
67278;SDS011;54193;53.746;10.058;2022-11-20T14:37:30;7.60;;;3.38;;
67278;SDS011;54193;53.746;10.058;2022-11-20T14:40:23;7.72;;;3.30;;
67278;SDS011;54193;53.746;10.058;2022-11-20T14:43:24;7.43;;;3.77;;
67278;SDS011;54193;53.746;10.058;2022-11-20T14:46:11;9.23;;;4.40;;
67278;SDS011;54193;53.746;10.058;2022-11-20T14:49:00;14.88;;;7.47;;
67278;SDS011;54193;53.746;10.058;2022-11-20T14:51:46;16.63;;;7.57;;
67278;SDS011;54193;53.746;10.058;2022-11-20T14:57:34;10.23;;;5.10;;
67278;SDS011;54193;53.746;10.058;2022-11-20T15:00:21;7.68;;;3.42;;
67278;SDS011;54193;53.746;10.058;2022-11-20T15:03:14;8.15;;;3.50;;
67278;SDS011;54193;53.746;10.058;2022-11-20T15:06:01;6.53;;;3.03;;
67278;SDS011;54193;53.746;10.058;2022-11-20T15:08:53;7.80;;;3.33;;
67278;SDS011;54193;53.746;10.058;2022-11-20T15:11:39;6.77;;;3.50;;
67278;SDS011;54193;53.746;10.058;2022-11-20T15:14:24;8.77;;;3.35;;
67278;SDS011;54193;53.746;10.058;2022-11-20T15:17:12;10.02;;;4.30;;
67278;SDS011;54193;53.746;10.058;2022-11-20T15:19:58;10.73;;;4.30;;
67278;SDS011;54193;53.746;10.058;2022-11-20T15:22:46;12.70;;;5.25;;
67278;SDS011;54193;53.746;10.058;2022-11-20T15:25:32;15.83;;;6.50;;
67278;SDS011;54193;53.746;10.058;2022-11-20T15:31:16;16.23;;;6.20;;
67278;SDS011;54193;53.746;10.058;2022-11-20T15:34:05;14.65;;;5.85;;
67278;SDS011;54193;53.746;10.058;2022-11-20T15:36:52;19.13;;;7.30;;
67278;SDS011;54193;53.746;10.058;2022-11-20T15:39:38;14.57;;;6.05;;
67278;SDS011;54193;53.746;10.058;2022-11-20T15:42:23;14.07;;;5.80;;
67278;SDS011;54193;53.746;10.058;2022-11-20T15:45:09;14.00;;;6.72;;
67278;SDS011;54193;53.746;10.058;2022-11-20T15:47:55;14.98;;;6.75;;
67278;SDS011;54193;53.746;10.058;2022-11-20T15:50:49;13.50;;;6.35;;
67278;SDS011;54193;53.746;10.058;2022-11-20T15:53:41;11.93;;;5.35;;
67278;SDS011;54193;53.746;10.058;2022-11-20T15:56:27;13.77;;;6.32;;
67278;SDS011;54193;53.746;10.058;2022-11-20T15:59:12;13.30;;;6.32;;
67278;SDS011;54193;53.746;10.058;2022-11-20T16:02:00;15.35;;;7.07;;
67278;SDS011;54193;53.746;10.058;2022-11-20T16:04:45;20.73;;;10.13;;
67278;SDS011;54193;53.746;10.058;2022-11-20T16:07:31;19.48;;;9.50;;
67278;SDS011;54193;53.746;10.058;2022-11-20T16:10:16;17.08;;;7.35;;
67278;SDS011;54193;53.746;10.058;2022-11-20T16:13:02;21.63;;;8.77;;
67278;SDS011;54193;53.746;10.058;2022-11-20T16:16:10;22.15;;;9.95;;
67278;SDS011;54193;53.746;10.058;2022-11-20T16:19:04;22.15;;;10.15;;
67278;SDS011;54193;53.746;10.058;2022-11-20T16:21:50;24.23;;;10.25;;
67278;SDS011;54193;53.746;10.058;2022-11-20T16:24:36;23.80;;;10.15;;
67278;SDS011;54193;53.746;10.058;2022-11-20T16:27:22;29.02;;;15.48;;
67278;SDS011;54193;53.746;10.058;2022-11-20T16:30:08;24.65;;;11.88;;
67278;SDS011;54193;53.746;10.058;2022-11-20T16:32:54;22.90;;;10.27;;
67278;SDS011;54193;53.746;10.058;2022-11-20T16:35:39;23.33;;;10.38;;
67278;SDS011;54193;53.746;10.058;2022-11-20T16:38:25;20.45;;;9.25;;
67278;SDS011;54193;53.746;10.058;2022-11-20T16:41:11;18.77;;;9.05;;
67278;SDS011;54193;53.746;10.058;2022-11-20T16:44:01;20.15;;;8.77;;
67278;SDS011;54193;53.746;10.058;2022-11-20T16:46:51;22.05;;;9.95;;
67278;SDS011;54193;53.746;10.058;2022-11-20T16:49:36;19.33;;;8.95;;
67278;SDS011;54193;53.746;10.058;2022-11-20T16:52:22;18.58;;;8.05;;
67278;SDS011;54193;53.746;10.058;2022-11-20T16:55:07;17.85;;;8.10;;
67278;SDS011;54193;53.746;10.058;2022-11-20T16:57:53;15.73;;;7.20;;
67278;SDS011;54193;53.746;10.058;2022-11-20T17:00:39;16.88;;;7.45;;
67278;SDS011;54193;53.746;10.058;2022-11-20T17:03:25;15.80;;;7.75;;
67278;SDS011;54193;53.746;10.058;2022-11-20T17:06:15;15.32;;;7.68;;
67278;SDS011;54193;53.746;10.058;2022-11-20T17:09:02;20.42;;;9.20;;
67278;SDS011;54193;53.746;10.058;2022-11-20T17:11:48;19.90;;;9.15;;
67278;SDS011;54193;53.746;10.058;2022-11-20T17:14:34;18.80;;;8.70;;
67278;SDS011;54193;53.746;10.058;2022-11-20T17:17:20;17.17;;;7.40;;
67278;SDS011;54193;53.746;10.058;2022-11-20T17:20:05;17.55;;;7.53;;
67278;SDS011;54193;53.746;10.058;2022-11-20T17:22:51;17.13;;;7.68;;
67278;SDS011;54193;53.746;10.058;2022-11-20T17:25:37;15.75;;;7.95;;
67278;SDS011;54193;53.746;10.058;2022-11-20T17:28:23;17.35;;;8.57;;
67278;SDS011;54193;53.746;10.058;2022-11-20T17:31:09;19.60;;;9.10;;
67278;SDS011;54193;53.746;10.058;2022-11-20T17:33:57;19.85;;;8.70;;
67278;SDS011;54193;53.746;10.058;2022-11-20T17:36:44;17.40;;;8.07;;
67278;SDS011;54193;53.746;10.058;2022-11-20T17:39:30;21.67;;;11.18;;
67278;SDS011;54193;53.746;10.058;2022-11-20T17:42:16;27.35;;;14.95;;
67278;SDS011;54193;53.746;10.058;2022-11-20T17:45:14;28.80;;;15.35;;
67278;SDS011;54193;53.746;10.058;2022-11-20T17:47:59;30.70;;;15.18;;
67278;SDS011;54193;53.746;10.058;2022-11-20T17:50:45;27.90;;;13.83;;
67278;SDS011;54193;53.746;10.058;2022-11-20T17:53:32;28.75;;;14.63;;
67278;SDS011;54193;53.746;10.058;2022-11-20T17:56:19;26.20;;;14.30;;
67278;SDS011;54193;53.746;10.058;2022-11-20T17:59:23;29.30;;;13.45;;
67278;SDS011;54193;53.746;10.058;2022-11-20T18:02:09;24.00;;;12.57;;